createdAt,value
2018-07-13T00:02:15.525Z,99.90
2018-07-13T00:04:47.399Z,99.90
2018-07-13T00:07:18.724Z,99.90
2018-07-13T00:09:51.359Z,99.90
2018-07-13T00:12:23.842Z,99.90
2018-07-13T00:17:38.696Z,99.90
2018-07-13T00:20:10.103Z,99.90
2018-07-13T00:25:12.307Z,99.90
2018-07-13T00:27:43.777Z,99.90
2018-07-13T00:30:16.271Z,99.90
2018-07-13T00:32:47.982Z,99.90
2018-07-13T00:40:21.424Z,99.90
2018-07-13T00:42:53.464Z,99.90
2018-07-13T00:45:25.347Z,99.90
2018-07-13T00:47:57.548Z,99.90
2018-07-13T00:50:29.899Z,99.90
2018-07-13T00:53:01.926Z,99.90
2018-07-13T00:55:34.569Z,99.90
2018-07-13T00:58:06.345Z,99.90
2018-07-13T01:00:38.386Z,99.90
2018-07-13T01:03:09.706Z,99.90
2018-07-13T01:05:41.326Z,99.90
2018-07-13T01:08:16.162Z,99.90
2018-07-13T01:10:48.131Z,99.90
2018-07-13T01:13:20.265Z,99.90
2018-07-13T01:15:52.117Z,99.90
2018-07-13T01:18:25.382Z,99.90
2018-07-13T01:23:31.511Z,99.90
2018-07-13T01:26:04.108Z,99.90
2018-07-13T01:28:36.813Z,99.90
2018-07-13T01:31:09.366Z,99.90
2018-07-13T01:33:41.839Z,99.90
2018-07-13T01:38:46.068Z,99.90
2018-07-13T01:41:18.557Z,99.90
2018-07-13T01:43:57.832Z,99.90
2018-07-13T01:46:29.228Z,99.90
2018-07-13T01:49:00.258Z,99.90
2018-07-13T01:51:31.900Z,99.90
2018-07-13T01:54:04.424Z,99.90
2018-07-13T01:56:37.482Z,99.90
2018-07-13T01:59:10.355Z,99.90
2018-07-13T02:01:43.365Z,99.90
2018-07-13T02:04:15.878Z,99.90
2018-07-13T02:06:48.783Z,99.90
2018-07-13T02:11:53.546Z,99.90
2018-07-13T02:14:26.527Z,99.90
2018-07-13T02:16:59.432Z,99.90
2018-07-13T02:19:32.067Z,99.90
2018-07-13T02:22:04.407Z,99.90
2018-07-13T02:24:37.426Z,99.90
2018-07-13T02:27:10.728Z,99.90
2018-07-13T02:29:42.595Z,99.90
2018-07-13T02:34:50.133Z,99.90
2018-07-13T02:37:31.105Z,99.90
2018-07-13T02:40:14.896Z,99.90
2018-07-13T02:42:50.069Z,99.90
2018-07-13T02:45:24.070Z,99.90
2018-07-13T02:48:02.546Z,99.90
2018-07-13T02:50:34.604Z,99.90
2018-07-13T02:53:07.077Z,99.90
2018-07-13T02:55:39.361Z,99.90
2018-07-13T02:58:10.297Z,99.90
2018-07-13T03:00:42.026Z,99.90
2018-07-13T03:03:13.200Z,99.90
2018-07-13T03:08:11.774Z,99.90
2018-07-13T03:10:40.787Z,99.90
2018-07-13T03:13:09.558Z,99.90
2018-07-13T03:15:38.179Z,99.90
2018-07-13T03:18:06.757Z,99.90
2018-07-13T03:20:35.266Z,99.90
2018-07-13T03:23:03.570Z,99.90
2018-07-13T03:28:00.893Z,99.90
2018-07-13T03:30:29.468Z,99.90
2018-07-13T03:32:57.744Z,99.90
2018-07-13T03:35:25.880Z,99.90
2018-07-13T03:37:54.440Z,99.90
2018-07-13T03:40:22.761Z,99.90
2018-07-13T03:42:51.043Z,99.90
2018-07-13T03:45:19.301Z,99.90
2018-07-13T03:50:17.653Z,99.90
2018-07-13T03:52:45.708Z,99.90
2018-07-13T03:55:13.858Z,99.90
2018-07-13T03:57:42.163Z,99.90
2018-07-13T04:00:10.264Z,99.90
2018-07-13T04:02:38.326Z,99.90
2018-07-13T04:05:06.490Z,99.90
2018-07-13T04:07:34.659Z,99.90
2018-07-13T04:10:02.908Z,99.90
2018-07-13T04:14:59.086Z,99.90
2018-07-13T04:17:27.262Z,99.90
2018-07-13T04:19:55.327Z,99.90
2018-07-13T04:22:23.601Z,99.90
2018-07-13T04:24:51.882Z,99.90
2018-07-13T04:27:20.280Z,99.90
2018-07-13T04:29:48.543Z,99.90
2018-07-13T04:32:16.633Z,99.90
2018-07-13T04:34:44.880Z,99.90
2018-07-13T04:37:13.089Z,99.90
2018-07-13T04:39:41.131Z,99.90
2018-07-13T04:42:09.604Z,99.90
2018-07-13T04:44:37.702Z,99.90
2018-07-13T04:47:05.970Z,99.90
2018-07-13T04:49:34.256Z,99.90
2018-07-13T04:52:02.516Z,99.90
2018-07-13T04:54:30.996Z,99.90
2018-07-13T04:56:59.320Z,99.90
2018-07-13T04:59:27.567Z,99.90
2018-07-13T05:01:55.955Z,99.90
2018-07-13T05:04:24.205Z,99.90
2018-07-13T05:06:52.619Z,99.90
2018-07-13T05:09:20.890Z,99.90
2018-07-13T05:11:49.176Z,99.90
2018-07-13T05:14:17.312Z,99.90
2018-07-13T05:16:45.416Z,99.90
2018-07-13T05:19:13.505Z,99.90
2018-07-13T05:21:41.748Z,99.90
2018-07-13T05:24:10.132Z,99.90
2018-07-13T05:26:38.405Z,99.90
2018-07-13T05:29:06.692Z,99.90
2018-07-13T05:31:35.064Z,99.90
2018-07-13T05:34:03.460Z,99.90
2018-07-13T05:36:31.738Z,99.90
2018-07-13T05:39:00.045Z,99.90
2018-07-13T05:41:28.414Z,99.90
2018-07-13T05:43:56.544Z,99.90
2018-07-13T05:48:52.808Z,99.90
2018-07-13T05:51:21.244Z,99.90
2018-07-13T05:53:49.461Z,99.90
2018-07-13T05:56:17.773Z,99.90
2018-07-13T05:58:46.007Z,99.90
2018-07-13T06:06:10.023Z,99.90
2018-07-13T06:11:06.410Z,99.90
2018-07-13T06:13:34.572Z,99.90
2018-07-13T06:16:02.731Z,99.90
2018-07-13T06:18:30.790Z,99.90
2018-07-13T06:23:26.867Z,99.90
2018-07-13T06:25:55.036Z,99.90
2018-07-13T06:28:23.226Z,99.90
2018-07-13T06:30:51.364Z,99.90
2018-07-13T06:35:47.422Z,99.90
2018-07-13T06:38:15.534Z,99.90
2018-07-13T06:40:44.030Z,99.90
2018-07-13T06:43:12.144Z,99.90
2018-07-13T06:45:41.021Z,99.90
2018-07-13T06:50:38.157Z,99.90
2018-07-13T06:53:06.715Z,99.90
2018-07-13T06:55:34.792Z,99.90
2018-07-13T06:58:14.216Z,99.90
2018-07-13T07:01:04.388Z,99.90
2018-07-13T07:06:10.545Z,99.90
2018-07-13T07:08:40.317Z,99.90
2018-07-13T07:11:08.666Z,99.90
2018-07-13T07:16:05.986Z,99.90
2018-07-13T07:18:34.443Z,99.90
2018-07-13T07:21:02.792Z,99.90
2018-07-13T07:23:31.427Z,99.90
2018-07-13T07:26:00.611Z,99.90
2018-07-13T07:28:29.136Z,99.90
2018-07-13T07:30:58.119Z,99.90
2018-07-13T07:33:26.340Z,99.90
2018-07-13T07:40:50.498Z,99.90
2018-07-13T07:43:19.338Z,99.90
2018-07-13T07:48:15.300Z,99.90
2018-07-13T07:50:43.695Z,99.90
2018-07-13T07:53:12.014Z,99.90
2018-07-13T07:55:40.266Z,99.90
2018-07-13T07:58:08.337Z,99.90
2018-07-13T08:00:36.495Z,99.90
2018-07-13T08:03:05.217Z,99.90
2018-07-13T08:05:33.347Z,99.90
2018-07-13T08:10:29.577Z,99.90
2018-07-13T08:15:25.574Z,99.90
2018-07-13T08:17:53.638Z,99.90
2018-07-13T08:20:29.007Z,99.90
2018-07-13T08:22:57.951Z,99.90
2018-07-13T08:25:26.863Z,99.90
2018-07-13T08:27:58.557Z,99.90
2018-07-13T08:30:34.680Z,99.90
2018-07-13T08:33:02.724Z,99.90
2018-07-13T08:35:31.053Z,99.90
2018-07-13T08:37:59.184Z,99.90
2018-07-13T08:40:27.484Z,99.90
2018-07-13T08:42:55.748Z,99.10
2018-07-13T08:47:52.025Z,98.20
2018-07-13T08:50:20.036Z,97.30
2018-07-13T08:52:48.258Z,97.00
2018-07-13T08:55:16.932Z,96.90
2018-07-13T08:57:47.522Z,97.80
2018-07-13T09:00:15.944Z,97.10
2018-07-13T09:02:44.145Z,96.70
2018-07-13T09:05:12.284Z,96.40
2018-07-13T09:10:12.489Z,96.70
2018-07-13T09:12:40.941Z,95.40
2018-07-13T09:15:10.518Z,94.00
2018-07-13T09:17:38.819Z,95.20
2018-07-13T09:20:08.782Z,95.10
2018-07-13T09:22:36.989Z,94.90
2018-07-13T09:27:33.032Z,94.90
2018-07-13T09:32:29.182Z,94.60
2018-07-13T09:34:57.496Z,94.30
2018-07-13T09:37:25.745Z,96.70
2018-07-13T09:39:53.931Z,96.30
2018-07-13T09:42:22.320Z,95.40
2018-07-13T09:44:50.489Z,95.70
2018-07-13T09:47:18.928Z,94.10
2018-07-13T09:49:47.142Z,93.60
2018-07-13T09:52:15.455Z,91.80
2018-07-13T09:54:43.606Z,92.50
2018-07-13T09:57:11.889Z,91.50
2018-07-13T09:59:40.048Z,92.70
2018-07-13T10:02:08.240Z,92.30
2018-07-13T10:04:36.516Z,90.50
2018-07-13T10:07:05.001Z,90.30
2018-07-13T10:09:33.187Z,92.10
2018-07-13T10:12:01.330Z,92.70
2018-07-13T10:14:29.741Z,92.50
2018-07-13T10:16:58.084Z,91.50
2018-07-13T10:19:26.388Z,91.70
2018-07-13T10:21:54.634Z,91.60
2018-07-13T10:24:22.871Z,92.00
2018-07-13T10:26:52.325Z,90.60
2018-07-13T10:29:23.488Z,90.70
2018-07-13T10:31:52.384Z,89.00
2018-07-13T10:34:21.020Z,89.80
2018-07-13T10:37:00.010Z,88.50
2018-07-13T10:39:28.295Z,87.10
2018-07-13T10:41:56.447Z,87.40
2018-07-13T10:44:24.621Z,86.70
2018-07-13T10:46:53.038Z,86.60
2018-07-13T10:49:21.068Z,85.10
2018-07-13T10:51:50.070Z,86.00
2018-07-13T10:54:18.364Z,84.30
2018-07-13T10:56:46.453Z,85.30
2018-07-13T10:59:14.617Z,85.40
2018-07-13T11:01:42.672Z,83.30
2018-07-13T11:04:12.216Z,83.20
2018-07-13T11:06:40.559Z,84.20
2018-07-13T11:09:09.585Z,83.50
2018-07-13T11:11:37.852Z,82.50
2018-07-13T11:14:06.147Z,86.00
2018-07-13T11:16:34.064Z,89.40
2018-07-13T11:19:02.401Z,91.20
2018-07-13T11:21:30.516Z,91.60
2018-07-13T11:23:58.612Z,91.80
2018-07-13T11:26:26.673Z,90.90
2018-07-13T11:28:55.071Z,90.10
2018-07-13T11:31:23.132Z,90.20
2018-07-13T11:33:51.307Z,89.30
2018-07-13T11:36:19.384Z,90.70
2018-07-13T11:38:47.545Z,90.70
2018-07-13T11:41:15.935Z,91.40
2018-07-13T11:43:44.008Z,91.50
2018-07-13T11:46:12.089Z,91.70
2018-07-13T11:48:40.235Z,92.70
2018-07-13T11:51:08.436Z,90.50
2018-07-13T11:53:36.830Z,91.10
2018-07-13T11:56:04.968Z,89.90
2018-07-13T11:58:33.167Z,90.60
2018-07-13T12:01:01.329Z,85.90
2018-07-13T12:03:29.518Z,86.40
2018-07-13T12:05:57.582Z,86.60
2018-07-13T12:08:25.580Z,86.60
2018-07-13T12:10:53.714Z,87.10
2018-07-13T12:13:21.812Z,87.10
2018-07-13T12:15:49.898Z,90.20
2018-07-13T12:18:17.967Z,88.50
2018-07-13T12:20:46.011Z,86.30
2018-07-13T12:23:14.178Z,83.80
2018-07-13T12:25:42.369Z,87.00
2018-07-13T12:28:10.520Z,83.30
2018-07-13T12:33:06.514Z,90.90
2018-07-13T12:35:34.574Z,89.70
2018-07-13T12:38:02.737Z,87.30
2018-07-13T12:40:31.056Z,87.50
2018-07-13T12:42:59.077Z,90.10
2018-07-13T12:45:27.106Z,84.60
2018-07-13T12:47:55.218Z,84.00
2018-07-13T12:50:23.349Z,84.30
2018-07-13T12:52:51.410Z,83.80
2018-07-13T12:55:19.552Z,84.90
2018-07-13T12:57:47.643Z,82.20
2018-07-13T13:00:15.799Z,85.80
2018-07-13T13:02:43.904Z,86.40
2018-07-13T13:05:11.927Z,82.90
2018-07-13T13:10:07.790Z,82.00
2018-07-13T13:12:35.873Z,83.40
2018-07-13T13:15:04.242Z,88.00
2018-07-13T13:17:32.351Z,82.50
2018-07-13T13:20:00.380Z,85.70
2018-07-13T13:22:28.579Z,86.50
2018-07-13T13:24:56.641Z,89.90
2018-07-13T13:27:24.933Z,89.30
2018-07-13T13:29:53.120Z,86.00
2018-07-13T13:32:21.147Z,87.00
2018-07-13T13:37:17.103Z,80.00
2018-07-13T13:39:45.206Z,79.10
2018-07-13T13:42:13.248Z,81.00
2018-07-13T13:44:41.349Z,80.70
2018-07-13T13:47:09.485Z,82.40
2018-07-13T13:49:37.719Z,80.90
2018-07-13T13:52:05.847Z,79.10
2018-07-13T13:54:33.940Z,78.60
2018-07-13T13:57:01.995Z,81.20
2018-07-13T13:59:30.040Z,77.60
2018-07-13T14:04:26.084Z,77.70
2018-07-13T14:06:54.177Z,77.60
2018-07-13T14:09:22.305Z,73.60
2018-07-13T14:11:50.527Z,75.00
2018-07-13T14:14:18.756Z,74.10
2018-07-13T14:16:46.792Z,78.30
2018-07-13T14:19:14.950Z,78.50
2018-07-13T14:24:10.894Z,74.90
2018-07-13T14:26:38.994Z,77.40
2018-07-13T14:29:07.048Z,77.50
2018-07-13T14:31:35.235Z,76.20
2018-07-13T14:34:03.496Z,75.60
2018-07-13T14:36:31.968Z,74.20
2018-07-13T14:41:28.565Z,79.50
2018-07-13T14:43:56.792Z,76.00
2018-07-13T14:48:52.899Z,72.40
2018-07-13T14:51:20.927Z,73.40
2018-07-13T14:53:49.222Z,72.30
2018-07-13T14:56:20.713Z,73.20
2018-07-13T14:58:49.754Z,74.70
2018-07-13T15:01:20.327Z,70.40
2018-07-13T15:03:48.593Z,69.90
2018-07-13T15:06:17.162Z,73.00
2018-07-13T15:08:45.050Z,69.40
2018-07-13T15:11:13.195Z,68.00
2018-07-13T15:13:41.403Z,67.10
2018-07-13T15:16:09.763Z,68.40
2018-07-13T15:18:37.857Z,66.30
2018-07-13T15:21:06.021Z,67.70
2018-07-13T15:23:34.063Z,72.20
2018-07-13T15:28:30.202Z,73.60
2018-07-13T15:30:58.324Z,75.60
2018-07-13T15:33:26.488Z,73.30
2018-07-13T15:35:54.684Z,71.60
2018-07-13T15:38:22.833Z,72.30
2018-07-13T15:40:51.247Z,72.90
2018-07-13T15:43:19.447Z,66.80
2018-07-13T15:48:15.561Z,73.00
2018-07-13T15:50:43.705Z,73.90
2018-07-13T15:53:11.827Z,74.20
2018-07-13T15:55:45.518Z,71.30
2018-07-13T15:58:13.677Z,74.50
2018-07-13T16:00:41.951Z,74.60
2018-07-13T16:03:10.320Z,75.90
2018-07-13T16:05:38.549Z,75.40
2018-07-13T16:08:06.592Z,77.00
2018-07-13T16:10:34.913Z,72.10
2018-07-13T16:13:03.255Z,72.50
2018-07-13T16:15:31.639Z,71.10
2018-07-13T16:17:59.953Z,73.50
2018-07-13T16:20:28.303Z,74.50
2018-07-13T16:22:56.433Z,71.10
2018-07-13T16:25:24.420Z,72.20
2018-07-13T16:27:52.567Z,69.20
2018-07-13T16:32:48.636Z,71.20
2018-07-13T16:35:16.727Z,70.10
2018-07-13T16:37:44.867Z,71.60
2018-07-13T16:40:13.026Z,65.30
2018-07-13T16:45:09.007Z,60.70
2018-07-13T16:47:37.264Z,58.30
2018-07-13T16:52:33.776Z,56.30
2018-07-13T16:55:01.913Z,56.20
2018-07-13T16:57:29.973Z,55.80
2018-07-13T16:59:58.166Z,59.00
2018-07-13T17:02:26.213Z,58.80
2018-07-13T17:04:54.509Z,58.60
2018-07-13T17:07:22.560Z,58.50
2018-07-13T17:09:50.781Z,61.00
2018-07-13T17:12:19.129Z,59.70
2018-07-13T17:14:47.384Z,60.30
2018-07-13T17:17:15.694Z,58.70
2018-07-13T17:19:43.877Z,60.60
2018-07-13T17:22:11.937Z,60.50
2018-07-13T17:24:40.161Z,59.10
2018-07-13T17:27:08.717Z,59.70
2018-07-13T17:29:37.845Z,59.00
2018-07-13T17:32:06.475Z,58.50
2018-07-13T17:34:34.524Z,58.70
2018-07-13T17:37:02.838Z,60.20
2018-07-13T17:39:30.990Z,61.70
2018-07-13T17:41:59.593Z,59.90
2018-07-13T17:44:28.143Z,61.10
2018-07-13T17:49:24.218Z,62.20
2018-07-13T17:51:54.848Z,62.30
2018-07-13T17:54:23.113Z,61.70
2018-07-13T17:56:51.302Z,62.80
2018-07-13T17:59:19.622Z,62.40
2018-07-13T18:01:49.750Z,62.90
2018-07-13T18:04:18.680Z,63.60
2018-07-13T18:06:46.772Z,64.00
2018-07-13T18:09:14.830Z,63.90
2018-07-13T18:11:43.205Z,65.10
2018-07-13T18:14:11.796Z,66.40
2018-07-13T18:16:41.231Z,67.40
2018-07-13T18:19:09.702Z,67.80
2018-07-13T18:21:37.943Z,68.10
2018-07-13T18:24:06.020Z,70.00
2018-07-13T18:29:02.169Z,76.40
2018-07-13T18:31:30.465Z,77.90
2018-07-13T18:33:58.520Z,77.80
2018-07-13T18:38:54.466Z,79.80
2018-07-13T18:41:26.241Z,86.80
2018-07-13T18:43:57.396Z,88.90
2018-07-13T18:46:28.937Z,92.60
2018-07-13T18:51:27.652Z,93.70
2018-07-13T18:53:55.836Z,94.60
2018-07-13T18:56:23.960Z,94.30
2018-07-13T18:58:52.163Z,96.70
2018-07-13T19:01:20.353Z,97.30
2018-07-13T19:03:48.544Z,99.00
2018-07-13T19:06:16.992Z,99.90
2018-07-13T19:08:45.297Z,99.90
2018-07-13T19:11:13.969Z,99.90
2018-07-13T19:13:43.706Z,99.90
2018-07-13T19:16:11.973Z,99.90
2018-07-13T19:18:40.033Z,99.90
2018-07-13T19:23:36.288Z,99.90
2018-07-13T19:26:04.491Z,99.90
2018-07-13T19:30:14.247Z,99.90
2018-07-13T19:32:42.383Z,99.90
2018-07-13T19:35:10.400Z,99.90
2018-07-13T19:37:38.323Z,99.90
2018-07-13T19:40:06.372Z,99.90
2018-07-13T19:42:35.377Z,99.90
2018-07-13T19:45:07.072Z,99.90
2018-07-13T19:47:38.127Z,99.90
2018-07-13T19:50:10.427Z,99.90
2018-07-13T19:52:42.235Z,99.90
2018-07-13T19:55:17.338Z,99.90
2018-07-13T19:57:49.144Z,99.90
2018-07-13T20:02:53.187Z,99.90
2018-07-13T20:05:37.327Z,99.90
2018-07-13T20:08:19.163Z,99.90
2018-07-13T20:11:00.645Z,99.90
2018-07-13T20:13:34.106Z,99.90
2018-07-13T20:16:04.973Z,99.90
2018-07-13T20:18:35.400Z,99.90
2018-07-13T20:21:06.153Z,99.90
2018-07-13T20:23:36.670Z,99.90
2018-07-13T20:26:06.580Z,99.90
2018-07-13T20:28:36.696Z,99.90
2018-07-13T20:31:08.300Z,99.90
2018-07-13T20:36:10.924Z,99.90
2018-07-13T20:38:42.753Z,99.90
2018-07-13T20:41:24.546Z,99.90
2018-07-13T20:46:25.442Z,99.90
2018-07-13T20:48:56.148Z,99.90
2018-07-13T20:53:58.903Z,99.90
2018-07-13T20:56:29.237Z,99.90
2018-07-13T20:58:58.904Z,99.90
2018-07-13T21:01:28.800Z,99.90
2018-07-13T21:06:27.329Z,99.90
2018-07-13T21:08:57.100Z,99.90
2018-07-13T21:11:26.987Z,99.90
2018-07-13T21:13:56.589Z,99.90
2018-07-13T21:16:26.142Z,99.90
2018-07-13T21:21:26.962Z,99.90
2018-07-13T21:23:57.642Z,99.90
2018-07-13T21:26:28.023Z,99.90
2018-07-13T21:28:59.787Z,99.90
2018-07-13T21:31:31.770Z,99.90
2018-07-13T21:34:03.824Z,99.90
2018-07-13T21:36:35.802Z,99.90
2018-07-13T21:39:08.605Z,99.90
2018-07-13T21:46:41.930Z,99.90
2018-07-13T21:49:13.002Z,99.90
2018-07-13T21:51:43.937Z,99.90
2018-07-13T21:54:15.220Z,99.90
2018-07-13T21:56:47.055Z,99.90
2018-07-13T21:59:19.223Z,99.90
2018-07-13T22:01:51.224Z,99.90
2018-07-13T22:04:23.523Z,99.90
2018-07-13T22:06:56.245Z,99.90
2018-07-13T22:09:28.294Z,99.90
2018-07-13T22:12:00.622Z,99.90
2018-07-13T22:14:32.271Z,99.90
2018-07-13T22:17:04.012Z,99.90
2018-07-13T22:19:35.574Z,99.90
2018-07-13T22:22:06.978Z,99.90
2018-07-13T22:24:38.205Z,99.90
2018-07-13T22:27:10.022Z,99.90
2018-07-13T22:29:41.014Z,99.90
2018-07-13T22:32:08.980Z,99.90
2018-07-13T22:34:41.613Z,99.90
2018-07-13T22:37:14.518Z,99.90
2018-07-13T22:39:44.738Z,99.90
2018-07-13T22:42:14.488Z,99.90
2018-07-13T22:44:44.280Z,99.90
2018-07-13T22:47:14.790Z,99.90
2018-07-13T22:49:44.776Z,99.90
2018-07-13T22:52:15.067Z,99.90
2018-07-13T22:54:45.269Z,99.90
2018-07-13T22:57:14.924Z,99.90
2018-07-13T22:59:44.488Z,99.90
2018-07-13T23:02:14.815Z,99.90
2018-07-13T23:04:45.165Z,99.90
2018-07-13T23:07:15.388Z,99.90
2018-07-13T23:09:45.339Z,99.90
2018-07-13T23:12:15.557Z,99.90
2018-07-13T23:14:45.760Z,99.90
2018-07-13T23:17:15.949Z,99.90
2018-07-13T23:19:46.062Z,99.90
2018-07-13T23:22:17.237Z,99.90
2018-07-13T23:24:48.984Z,99.90
2018-07-13T23:27:19.164Z,99.90
2018-07-13T23:29:49.313Z,99.90
2018-07-13T23:32:19.652Z,99.90
2018-07-13T23:34:49.726Z,99.90
2018-07-13T23:37:20.145Z,99.90
2018-07-13T23:42:20.916Z,99.90
2018-07-13T23:44:51.595Z,99.90
2018-07-13T23:47:23.142Z,99.90
2018-07-13T23:49:55.019Z,99.90
2018-07-13T23:52:26.330Z,99.90
2018-07-13T23:54:57.539Z,99.90
2018-07-13T23:59:58.636Z,99.90
